createdAt,value
2019-04-25T00:02:51.229Z,99620.13
2019-04-25T00:07:53.496Z,99622.18
2019-04-25T00:12:55.570Z,99633.59
2019-04-25T00:17:57.719Z,99645.86
2019-04-25T00:23:09.786Z,99646.70
2019-04-25T00:28:11.932Z,99651.48
2019-04-25T00:33:14.061Z,99658.31
2019-04-25T00:38:16.126Z,99674.17
2019-04-25T00:43:18.208Z,99679.50
2019-04-25T00:48:20.257Z,99684.09
2019-04-25T00:53:22.311Z,99695.20
2019-04-25T00:58:43.080Z,99695.50
2019-04-25T01:03:45.370Z,99700.21
2019-04-25T01:08:47.787Z,99683.55
2019-04-25T01:13:50.442Z,99674.13
2019-04-25T01:18:54.807Z,99669.62
2019-04-25T01:23:57.769Z,99680.13
2019-04-25T01:28:59.967Z,99699.31
2019-04-25T01:34:04.405Z,99703.28
2019-04-25T01:39:25.788Z,99713.55
2019-04-25T01:44:34.282Z,99712.09
2019-04-25T01:49:36.373Z,99718.05
2019-04-25T01:54:38.463Z,99716.20
2019-04-25T01:59:40.582Z,99715.16
2019-04-25T02:04:44.284Z,99710.61
2019-04-25T02:15:05.957Z,99735.23
2019-04-25T02:20:06.872Z,99742.36
2019-04-25T02:25:08.956Z,99754.34
2019-04-25T02:30:12.336Z,99749.95
2019-04-25T02:35:14.925Z,99766.14
2019-04-25T02:40:19.037Z,99775.80
2019-04-25T02:45:36.972Z,99780.02
2019-04-25T02:50:58.095Z,99794.12
2019-04-25T02:56:01.762Z,99793.47
2019-04-25T03:01:16.219Z,99792.86
2019-04-25T03:06:11.880Z,99783.66
2019-04-25T03:11:14.928Z,99772.80
2019-04-25T03:16:17.436Z,99769.45
2019-04-25T03:21:25.097Z,99786.23
2019-04-25T03:26:37.855Z,99788.59
2019-04-25T03:31:31.222Z,99792.92
2019-04-25T03:36:33.798Z,99778.13
2019-04-25T03:41:36.029Z,99789.34
2019-04-25T03:46:38.112Z,99808.33
2019-04-25T03:51:40.203Z,99810.45
2019-04-25T03:56:53.190Z,99817.91
2019-04-25T04:01:48.633Z,99831.65
2019-04-25T04:06:50.682Z,99837.44
2019-04-25T04:11:53.468Z,99842.73
2019-04-25T04:17:23.745Z,99852.59
2019-04-25T04:22:34.054Z,99861.66
2019-04-25T04:27:36.350Z,99863.15
2019-04-25T04:32:38.434Z,99864.09
2019-04-25T04:37:40.466Z,99874.62
2019-04-25T04:42:43.525Z,99885.36
2019-04-25T04:47:45.942Z,99900.84
2019-04-25T04:52:48.038Z,99903.34
2019-04-25T04:57:50.214Z,99902.54
2019-04-25T05:03:02.333Z,99907.64
2019-04-25T05:08:11.068Z,99912.41
2019-04-25T05:13:15.382Z,99913.05
2019-04-25T05:18:33.037Z,99923.44
2019-04-25T05:23:21.275Z,99922.13
2019-04-25T05:28:24.562Z,99920.64
2019-04-25T05:33:26.867Z,99912.78
2019-04-25T05:38:28.967Z,99930.63
2019-04-25T05:43:31.400Z,99942.50
2019-04-25T05:48:34.086Z,99949.73
2019-04-25T05:53:36.385Z,99960.03
2019-04-25T05:58:38.496Z,99971.63
2019-04-25T06:03:40.579Z,99973.20
2019-04-25T06:08:49.754Z,99989.69
2019-04-25T06:14:04.694Z,99992.36
2019-04-25T06:19:25.559Z,99982.45
2019-04-25T06:24:48.184Z,99983.84
2019-04-25T06:29:59.128Z,99995.27
2019-04-25T06:34:59.052Z,99983.33
2019-04-25T06:40:01.123Z,100017.00
2019-04-25T06:45:26.689Z,100014.02
2019-04-25T06:50:29.086Z,100008.62
2019-04-25T06:55:32.287Z,100011.62
2019-04-25T07:00:41.145Z,100013.72
2019-04-25T07:05:40.699Z,100027.48
2019-04-25T07:10:44.649Z,100023.06
2019-04-25T07:15:46.865Z,100015.27
2019-04-25T07:20:48.994Z,100008.61
2019-04-25T07:26:03.926Z,100010.73
2019-04-25T07:31:23.366Z,100018.86
2019-04-25T07:36:26.653Z,100012.42
2019-04-25T07:41:29.442Z,100027.30
2019-04-25T07:46:32.812Z,100028.56
2019-04-25T07:51:35.604Z,100038.44
2019-04-25T07:56:37.973Z,100040.09
2019-04-25T08:01:40.018Z,100042.25
2019-04-25T08:06:42.193Z,100035.84
2019-04-25T08:11:44.248Z,100036.66
2019-04-25T08:16:49.334Z,100028.98
2019-04-25T08:21:51.777Z,100038.40
2019-04-25T08:26:53.908Z,100029.02
2019-04-25T08:31:56.023Z,100031.05
2019-04-25T08:36:58.490Z,100025.02
2019-04-25T08:42:00.577Z,100014.70
2019-04-25T08:47:04.391Z,100009.23
2019-04-25T08:52:06.887Z,100011.53
2019-04-25T08:57:16.880Z,100015.32
2019-04-25T09:02:38.906Z,100019.36
2019-04-25T09:07:41.091Z,100022.87
2019-04-25T09:12:44.270Z,100018.53
2019-04-25T09:17:47.285Z,100006.80
2019-04-25T09:22:49.579Z,100010.10
2019-04-25T09:27:51.682Z,99999.67
2019-04-25T09:32:53.779Z,99994.02
2019-04-25T09:37:55.862Z,100002.75
2019-04-25T09:42:58.121Z,99996.41
2019-04-25T09:48:06.782Z,99999.05
2019-04-25T09:53:21.019Z,99993.05
2019-04-25T09:58:17.049Z,99983.23
2019-04-25T10:03:19.155Z,99990.75
2019-04-25T10:08:21.296Z,99990.93
2019-04-25T10:13:25.085Z,99985.40
2019-04-25T10:18:27.434Z,99981.86
2019-04-25T10:23:31.890Z,99978.34
2019-04-25T10:28:34.117Z,99969.17
2019-04-25T10:33:36.353Z,99963.87
2019-04-25T10:38:40.168Z,99963.76
2019-04-25T10:43:42.399Z,99950.78
2019-04-25T10:48:44.481Z,99949.64
2019-04-25T10:53:47.037Z,99942.74
2019-04-25T10:58:49.455Z,99949.22
2019-04-25T11:04:05.688Z,99940.87
2019-04-25T11:09:15.076Z,99932.23
2019-04-25T11:14:17.175Z,99931.72
2019-04-25T11:19:19.725Z,99937.78
2019-04-25T11:24:23.502Z,99927.22
2019-04-25T11:29:25.864Z,99924.13
2019-04-25T11:34:28.353Z,99918.45
2019-04-25T11:39:37.472Z,99907.53
2019-04-25T11:44:39.543Z,99901.21
2019-04-25T11:49:42.096Z,99895.45
2019-04-25T11:54:46.760Z,99901.66
2019-04-25T11:59:50.503Z,99896.70
2019-04-25T12:04:54.904Z,99887.55
2019-04-25T12:09:56.763Z,99870.80
2019-04-25T12:14:58.820Z,99890.91
2019-04-25T12:20:00.916Z,99877.56
2019-04-25T12:25:04.645Z,99864.33
2019-04-25T12:30:07.373Z,99855.17
2019-04-25T12:35:09.875Z,99847.25
2019-04-25T12:40:14.085Z,99834.46
2019-04-25T12:45:45.655Z,99841.59
2019-04-25T12:50:48.032Z,99833.72
2019-04-25T12:55:50.106Z,99823.45
2019-04-25T13:00:54.962Z,99818.77
2019-04-25T13:05:56.369Z,99817.20
2019-04-25T13:11:07.925Z,99811.11
2019-04-25T13:16:04.366Z,99808.11
2019-04-25T13:21:07.670Z,99792.06
2019-04-25T13:26:09.873Z,99792.20
2019-04-25T13:31:23.303Z,99785.79
2019-04-25T13:36:25.458Z,99784.73
2019-04-25T13:41:27.557Z,99778.01
2019-04-25T13:46:29.779Z,99764.77
2019-04-25T13:51:31.816Z,99765.75
2019-04-25T13:56:37.047Z,99767.42
2019-04-25T14:01:38.289Z,99756.73
2019-04-25T14:06:40.411Z,99745.70
2019-04-25T14:11:44.093Z,99738.71
2019-04-25T14:17:09.824Z,99736.60
2019-04-25T14:22:11.892Z,99740.22
2019-04-25T14:27:14.759Z,99728.86
2019-04-25T14:32:17.656Z,99709.80
2019-04-25T14:37:19.700Z,99709.25
2019-04-25T14:42:24.493Z,99702.03
2019-04-25T14:47:27.465Z,99690.48
2019-04-25T14:52:29.694Z,99702.89
2019-04-25T14:57:32.593Z,99693.30
2019-04-25T15:02:35.163Z,99691.39
2019-04-25T15:07:37.728Z,99684.45
2019-04-25T15:12:39.913Z,99680.52
2019-04-25T15:17:46.375Z,99682.42
2019-04-25T15:22:46.058Z,99673.52
2019-04-25T15:27:48.158Z,99670.63
2019-04-25T15:32:51.921Z,99677.69
2019-04-25T15:38:00.687Z,99676.41
2019-04-25T15:43:15.457Z,99668.42
2019-04-25T15:48:17.725Z,99662.27
2019-04-25T15:53:21.771Z,99664.90
2019-04-25T15:58:24.024Z,99658.74
2019-04-25T16:03:27.144Z,99648.81
2019-04-25T16:08:30.936Z,99649.19
2019-04-25T16:13:33.173Z,99648.09
2019-04-25T16:18:35.366Z,99651.98
2019-04-25T16:23:37.558Z,99651.47
2019-04-25T16:28:39.635Z,99653.54
2019-04-25T16:33:42.145Z,99656.61
2019-04-25T16:38:44.421Z,99643.50
2019-04-25T16:43:50.186Z,99644.66
2019-04-25T16:48:52.323Z,99635.25
2019-04-25T16:53:54.399Z,99644.39
2019-04-25T16:58:56.521Z,99642.03
2019-04-25T17:03:58.673Z,99635.48
2019-04-25T17:09:02.601Z,99632.34
2019-04-25T17:14:13.523Z,99629.75
2019-04-25T17:19:23.233Z,99623.73
2019-04-25T17:24:25.368Z,99632.96
2019-04-25T17:29:27.550Z,99626.34
2019-04-25T17:34:48.077Z,99622.69
2019-04-25T17:39:53.766Z,99621.77
2019-04-25T17:44:55.866Z,99622.59
2019-04-25T17:50:00.121Z,99621.35
2019-04-25T17:55:02.211Z,99614.85
2019-04-25T18:00:09.493Z,99611.31
2019-04-25T18:05:11.595Z,99600.61
2019-04-25T18:10:14.390Z,99609.36
2019-04-25T18:15:21.871Z,99608.44
2019-04-25T18:20:25.853Z,99606.57
2019-04-25T18:26:00.912Z,99600.80
2019-04-25T18:31:03.929Z,99596.61
2019-04-25T18:36:25.064Z,99595.90
2019-04-25T18:41:32.176Z,99605.39
2019-04-25T18:46:40.521Z,99603.88
2019-04-25T18:51:55.202Z,99605.94
2019-04-25T18:57:06.254Z,99606.52
2019-04-25T19:02:26.941Z,99603.44
2019-04-25T19:07:30.128Z,99607.50
2019-04-25T19:12:32.158Z,99606.26
2019-04-25T19:17:34.236Z,99611.69
2019-04-25T19:22:36.421Z,99608.07
2019-04-25T19:27:38.511Z,99596.86
2019-04-25T19:32:41.636Z,99598.41
2019-04-25T19:37:43.950Z,99597.70
2019-04-25T19:42:49.039Z,99596.07
2019-04-25T19:47:51.539Z,99598.29
2019-04-25T19:52:53.862Z,99592.95
2019-04-25T19:57:55.951Z,99590.70
2019-04-25T20:03:21.167Z,99593.73
2019-04-25T20:08:37.396Z,99595.08
2019-04-25T20:13:39.483Z,99596.70
2019-04-25T20:18:41.556Z,99588.23
2019-04-25T20:23:45.366Z,99581.60
2019-04-25T20:28:48.342Z,99586.34
2019-04-25T20:34:01.419Z,99572.80
2019-04-25T20:38:55.382Z,99575.91
2019-04-25T20:43:57.536Z,99572.73
2019-04-25T20:48:59.614Z,99562.48
2019-04-25T20:54:01.669Z,99566.72
2019-04-25T20:59:03.824Z,99563.11
2019-04-25T21:04:13.288Z,99555.60
2019-04-25T21:09:13.048Z,99559.16
2019-04-25T21:14:46.369Z,99556.79
2019-04-25T21:19:48.948Z,99549.07
2019-04-25T21:24:51.915Z,99554.61
2019-04-25T21:29:54.090Z,99552.06
2019-04-25T21:34:57.147Z,99545.41
2019-04-25T21:40:23.058Z,99551.97
2019-04-25T21:45:25.442Z,99545.55
2019-04-25T21:50:27.914Z,99546.84
2019-04-25T21:55:30.325Z,99540.24
2019-04-25T22:00:52.450Z,99529.30
2019-04-25T22:05:56.863Z,99538.52
2019-04-25T22:10:59.892Z,99525.70
2019-04-25T22:16:01.964Z,99521.92
2019-04-25T22:21:04.687Z,99518.02
2019-04-25T22:26:07.062Z,99517.92
2019-04-25T22:31:14.191Z,99511.91
2019-04-25T22:36:18.789Z,99508.79
2019-04-25T22:41:20.841Z,99504.16
2019-04-25T22:46:27.148Z,99508.09
2019-04-25T22:51:27.321Z,99501.15
2019-04-25T22:56:29.682Z,99492.09
2019-04-25T23:01:41.754Z,99481.36
2019-04-25T23:06:44.111Z,99470.27
2019-04-25T23:11:46.179Z,99474.55
2019-04-25T23:16:51.129Z,99468.34
2019-04-25T23:21:53.224Z,99469.38
2019-04-25T23:27:02.374Z,99465.19
2019-04-25T23:32:05.772Z,99456.58
2019-04-25T23:37:08.948Z,99459.08
2019-04-25T23:42:11.567Z,99454.53
2019-04-25T23:47:14.359Z,99458.96
2019-04-25T23:52:17.216Z,99452.85
2019-04-25T23:57:19.425Z,99447.81
